Time;durP1;ratioP1;P1;durP2;ratioP2;P2;SDS_P1;SDS_P2;PMS_P1;PMS_P2;Temp;Humidity;BMP_temperature;BMP_pressure;BME280_temperature;BME280_humidity;BME280_pressure;Samples;Min_cycle;Max_cycle;Signal;HPM_P1;HPM_P2
2022/11/22 00:01:09;;;;;;;4.18;2.15;;;;;;;9.61;100.00;98090.03;5022012;28;20588;-67
2022/11/22 00:03:35;;;;;;;6.60;2.72;;;;;;;9.62;100.00;98083.75;5017362;28;20036;-67
2022/11/22 00:06:00;;;;;;;6.05;2.30;;;;;;;9.63;100.00;98077.53;5023576;28;20398;-67
2022/11/22 00:08:26;;;;;;;6.05;2.97;;;;;;;9.57;100.00;98083.16;5023105;28;20109;-67
2022/11/22 00:10:52;;;;;;;5.20;2.65;;;;;;;9.62;100.00;98097.03;5013242;28;20025;-67
2022/11/22 00:13:18;;;;;;;7.85;3.28;;;;;;;9.63;100.00;98104.06;5008342;28;20785;-67
2022/11/22 00:15:44;;;;;;;5.40;2.90;;;;;;;9.65;100.00;98112.81;5013499;28;20093;-68
2022/11/22 00:18:09;;;;;;;8.93;2.67;;;;;;;9.68;100.00;98112.63;5014957;28;20021;-67
2022/11/22 00:20:35;;;;;;;5.18;2.58;;;;;;;9.63;100.00;98104.06;5021965;28;20037;-67
2022/11/22 00:23:01;;;;;;;4.85;2.90;;;;;;;9.73;100.00;98115.84;5015299;28;20105;-67
2022/11/22 00:25:26;;;;;;;6.20;2.33;;;;;;;9.73;100.00;98105.22;5028579;28;20760;-68
2022/11/22 00:27:52;;;;;;;5.68;2.63;;;;;;;9.73;100.00;98105.22;5029258;28;20025;-67
2022/11/22 00:30:17;;;;;;;4.95;2.53;;;;;;;9.76;100.00;98110.34;5026280;28;20397;-67
2022/11/22 00:32:43;;;;;;;8.02;2.30;;;;;;;9.76;100.00;98114.81;5011703;28;20332;-67
2022/11/22 00:35:10;;;;;;;4.10;2.15;;;;;;;9.70;100.00;98110.72;5027263;28;20079;-67
2022/11/22 00:37:36;;;;;;;4.63;2.28;;;;;;;9.68;100.00;98111.75;5029123;28;20033;-67
2022/11/22 00:40:02;;;;;;;7.38;1.90;;;;;;;9.79;100.00;98125.22;5017911;28;20029;-67
2022/11/22 00:42:27;;;;;;;6.15;2.55;;;;;;;9.82;100.00;98117.94;5009765;28;20041;-68
2022/11/22 00:44:53;;;;;;;3.78;1.98;;;;;;;9.81;100.00;98126.88;5009328;28;20030;-67
2022/11/22 00:47:18;;;;;;;4.22;2.20;;;;;;;9.82;100.00;98120.59;5010907;28;20026;-68
2022/11/22 00:49:43;;;;;;;4.30;2.30;;;;;;;9.81;100.00;98113.59;5011940;28;20473;-67
2022/11/22 00:52:09;;;;;;;3.55;1.90;;;;;;;9.85;100.00;98115.09;5012300;28;20057;-67
2022/11/22 00:54:34;;;;;;;4.22;2.03;;;;;;;9.81;100.00;98110.94;5010768;28;20072;-67
2022/11/22 00:56:59;;;;;;;4.60;2.15;;;;;;;9.77;100.00;98119.19;5010444;28;20030;-67
2022/11/22 00:59:25;;;;;;;3.67;2.05;;;;;;;9.73;100.00;98121.16;5010680;28;20055;-67
2022/11/22 01:01:50;;;;;;;4.82;2.38;;;;;;;9.86;100.00;98132.75;5010723;28;20037;-67
2022/11/22 01:04:16;;;;;;;4.55;2.13;;;;;;;9.85;100.00;98131.03;5023372;28;20021;-68
2022/11/22 01:06:41;;;;;;;6.43;2.63;;;;;;;9.81;100.00;98129.53;5014650;28;20018;-67
2022/11/22 01:09:07;;;;;;;6.93;1.85;;;;;;;9.85;100.00;98152.28;5010725;28;20083;-67
2022/11/22 01:11:32;;;;;;;7.03;2.40;;;;;;;9.87;100.00;98150.38;5021503;28;20357;-68
2022/11/22 01:13:57;;;;;;;5.18;2.67;;;;;;;9.78;100.00;98144.78;5030452;28;20081;-67
2022/11/22 01:16:23;;;;;;;2.97;2.03;;;;;;;9.86;100.00;98159.31;5030344;28;20041;-68
2022/11/22 01:18:48;;;;;;;4.00;1.83;;;;;;;9.82;100.00;98163.06;5030381;28;20421;-68
2022/11/22 01:21:14;;;;;;;2.78;1.77;;;;;;;9.81;100.00;98148.09;5033577;28;20087;-67
2022/11/22 01:23:39;;;;;;;8.05;1.75;;;;;;;9.84;100.00;98166.50;5048969;28;20033;-67
2022/11/22 01:26:08;;;;;;;3.65;1.83;;;;;;;9.83;100.00;98164.81;5032511;28;20029;-68
2022/11/22 01:28:34;;;;;;;3.00;1.98;;;;;;;9.83;100.00;98167.47;5033738;28;20400;-67
2022/11/22 01:30:59;;;;;;;5.45;1.92;;;;;;;9.85;100.00;98178.00;5028123;28;20032;-68
2022/11/22 01:33:25;;;;;;;4.95;2.10;;;;;;;9.81;100.00;98177.31;5013293;28;20030;-68
2022/11/22 01:35:50;;;;;;;4.93;1.75;;;;;;;9.86;100.00;98175.25;5020767;28;20450;-67
2022/11/22 01:38:16;;;;;;;3.35;1.50;;;;;;;9.87;100.00;98181.38;5032911;28;20021;-68
2022/11/22 01:40:41;;;;;;;2.55;1.80;;;;;;;9.86;100.00;98191.19;5032594;28;20488;-68
2022/11/22 01:43:17;;;;;;;4.85;2.33;;;;;;;9.89;100.00;98195.44;5032794;28;20026;-68
2022/11/22 01:45:53;;;;;;;2.72;1.38;;;;;;;9.84;100.00;98193.06;5032997;28;20037;-67
2022/11/22 01:48:44;;;;;;;2.67;1.65;;;;;;;9.78;100.00;98193.44;5033460;28;20021;-67
2022/11/22 01:51:24;;;;;;;5.47;1.92;;;;;;;9.75;100.00;98190.94;5022923;28;20164;-67
2022/11/22 01:53:53;;;;;;;2.72;1.55;;;;;;;9.73;100.00;98186.66;5033257;28;20072;-67
2022/11/22 01:56:20;;;;;;;5.82;1.70;;;;;;;9.65;100.00;98176.50;5033330;28;20394;-67
2022/11/22 01:58:50;;;;;;;5.28;1.80;;;;;;;9.73;100.00;98194.63;5031397;28;20049;-67
2022/11/22 02:01:16;;;;;;;13.38;2.20;;;;;;;9.75;100.00;98193.59;5033165;28;20123;-69
2022/11/22 02:03:45;;;;;;;4.18;1.73;;;;;;;9.76;100.00;98194.44;5030943;28;20064;-69
2022/11/22 02:06:11;;;;;;;6.28;1.50;;;;;;;9.74;100.00;98205.16;5014511;28;20021;-69
2022/11/22 02:08:42;;;;;;;2.90;1.75;;;;;;;9.66;100.00;98187.97;5013604;28;20543;-68
2022/11/22 02:11:10;;;;;;;4.78;2.00;;;;;;;9.75;100.00;98204.19;5013411;28;20139;-69
2022/11/22 02:13:40;;;;;;;3.50;1.63;;;;;;;9.79;100.00;98215.50;5013243;28;20037;-69
2022/11/22 02:16:06;;;;;;;8.68;2.30;;;;;;;9.80;100.00;98218.06;5013227;28;20145;-69
2022/11/22 02:18:34;;;;;;;3.42;1.70;;;;;;;9.81;100.00;98216.28;5013218;28;20034;-69
2022/11/22 02:21:01;;;;;;;3.55;1.90;;;;;;;9.76;100.00;98211.25;5026432;28;20030;-69
2022/11/22 02:23:29;;;;;;;4.82;2.03;;;;;;;9.81;100.00;98218.94;5032940;28;20041;-69
2022/11/22 02:26:01;;;;;;;3.65;2.10;;;;;;;9.82;100.00;98221.50;5032872;28;20485;-69
2022/11/22 02:28:34;;;;;;;5.40;1.50;;;;;;;9.82;100.00;98221.50;5032446;28;20025;-69
2022/11/22 02:30:59;;;;;;;4.20;1.80;;;;;;;9.82;100.00;98224.16;5031502;28;20033;-69
2022/11/22 02:33:24;;;;;;;4.32;2.05;;;;;;;9.77;100.00;98212.94;5031568;28;20424;-69
2022/11/22 02:35:50;;;;;;;3.55;1.70;;;;;;;9.84;100.00;98226.72;5021483;28;20116;-69
2022/11/22 02:38:36;;;;;;;7.90;1.83;;;;;;;9.83;100.00;98239.16;5012104;28;20068;-69
2022/11/22 02:41:05;;;;;;;6.63;1.90;;;;;;;9.71;100.00;98217.75;5011835;28;20045;-69
2022/11/22 02:43:34;;;;;;;4.32;1.77;;;;;;;9.72;100.00;98236.25;5011948;28;20022;-69
2022/11/22 02:46:12;;;;;;;3.30;1.83;;;;;;;9.65;100.00;98242.00;5015020;28;20022;-69
2022/11/22 02:48:44;;;;;;;3.75;1.45;;;;;;;9.56;100.00;98235.41;5012584;28;20033;-69
2022/11/22 02:51:15;;;;;;;3.05;1.45;;;;;;;9.55;100.00;98238.16;5012424;28;20021;-70
2022/11/22 02:53:45;;;;;;;5.80;1.80;;;;;;;9.56;100.00;98242.50;5012782;28;20037;-69
2022/11/22 02:56:10;;;;;;;3.15;1.80;;;;;;;9.52;100.00;98248.94;5012479;28;20033;-69
2022/11/22 02:58:38;;;;;;;2.92;1.77;;;;;;;9.48;100.00;98258.88;5028044;28;20021;-69
2022/11/22 03:01:04;;;;;;;4.35;1.52;;;;;;;9.44;100.00;98252.00;5031647;28;20052;-69
2022/11/22 03:03:30;;;;;;;2.78;1.60;;;;;;;9.38;100.00;98246.19;5032144;28;20385;-69
2022/11/22 03:05:56;;;;;;;3.65;1.40;;;;;;;9.40;100.00;98261.09;5023384;28;20204;-69
2022/11/22 03:08:21;;;;;;;2.95;1.50;;;;;;;9.36;100.00;98254.25;5012250;28;20029;-69
2022/11/22 03:10:47;;;;;;;4.78;1.40;;;;;;;9.34;100.00;98262.28;5012238;28;20041;-69
2022/11/22 03:13:12;;;;;;;6.15;1.63;;;;;;;9.28;100.00;98261.78;5012301;28;20107;-69
2022/11/22 03:15:38;;;;;;;5.43;1.80;;;;;;;9.17;100.00;98242.97;5011636;28;20030;-69
2022/11/22 03:18:04;;;;;;;4.57;1.75;;;;;;;9.25;100.00;98264.59;5011357;28;20025;-68
2022/11/22 03:20:31;;;;;;;3.25;1.73;;;;;;;9.25;100.00;98256.66;5009695;28;20064;-69
2022/11/22 03:22:59;;;;;;;5.43;1.23;;;;;;;9.27;100.00;98260.06;5011294;28;20033;-69
2022/11/22 03:25:25;;;;;;;3.20;1.48;;;;;;;9.26;100.00;98256.56;5011134;28;20040;-69
2022/11/22 03:27:50;;;;;;;10.02;1.75;;;;;;;9.22;100.00;98243.56;5009552;28;20030;-69
2022/11/22 03:30:16;;;;;;;4.68;1.60;;;;;;;9.28;100.00;98261.78;5020770;28;20033;-69
2022/11/22 03:32:41;;;;;;;4.68;1.80;;;;;;;9.31;100.00;98257.16;5011846;28;20481;-69
2022/11/22 03:35:07;;;;;;;4.40;1.83;;;;;;;9.33;100.00;98259.72;5021325;28;20021;-69
2022/11/22 03:37:33;;;;;;;10.95;2.25;;;;;;;9.36;100.00;98259.56;5018054;28;20021;-69
2022/11/22 03:39:58;;;;;;;5.88;2.10;;;;;;;9.37;100.00;98266.59;5031371;28;20092;-69
2022/11/22 03:42:23;;;;;;;6.78;2.42;;;;;;;9.31;100.00;98251.00;5030642;28;20025;-69
2022/11/22 03:44:49;;;;;;;6.03;2.47;;;;;;;9.26;100.00;98247.75;5031271;28;20075;-70
2022/11/22 03:47:14;;;;;;;4.65;2.22;;;;;;;9.41;100.00;98270.75;5031345;28;20033;-69
2022/11/22 03:49:41;;;;;;;6.13;2.22;;;;;;;9.44;100.00;98277.72;5031482;28;20106;-69
2022/11/22 03:52:06;;;;;;;7.57;3.00;;;;;;;9.49;100.00;98276.50;5031111;28;20079;-69
2022/11/22 03:54:32;;;;;;;4.47;2.20;;;;;;;9.40;100.00;98255.81;5031253;28;20421;-69
2022/11/22 03:56:57;;;;;;;8.60;2.05;;;;;;;9.53;100.00;98275.41;5024615;28;20021;-69
2022/11/22 03:59:22;;;;;;;8.68;1.85;;;;;;;9.48;100.00;98263.31;5011143;28;20528;-69
2022/11/22 04:01:49;;;;;;;5.50;2.00;;;;;;;9.54;100.00;98286.88;5011149;28;20061;-70
2022/11/22 04:04:15;;;;;;;6.88;2.13;;;;;;;9.41;100.00;98262.81;5023888;28;20033;-69
2022/11/22 04:06:40;;;;;;;4.93;1.65;;;;;;;9.55;100.00;98276.19;5020739;28;20036;-69
2022/11/22 04:09:06;;;;;;;9.95;1.63;;;;;;;9.55;100.00;98281.47;5030918;28;20492;-70
2022/11/22 04:11:31;;;;;;;3.53;1.38;;;;;;;9.54;100.00;98285.06;5030929;28;20115;-70
2022/11/22 04:16:40;;;;;;;;;;;;;;;9.50;100.00;98288.84;5031144;28;20032;-70
2022/11/22 04:19:06;;;;;;;3.83;2.25;;;;;;;9.44;100.00;98291.81;5031053;28;19913;-69
2022/11/22 04:21:34;;;;;;;5.43;1.30;;;;;;;9.27;100.00;98273.34;5030832;28;20040;-69
2022/11/22 04:26:49;;;;;;;4.47;1.60;;;;;;;9.13;100.00;98273.22;5027629;28;20388;-69
2022/11/22 04:29:16;;;;;;;8.18;3.00;;;;;;;9.01;100.00;98273.91;5030943;28;20029;-69
2022/11/22 04:34:25;;;;;;;7.68;3.35;;;;;;;8.91;100.00;98264.75;5031074;28;20035;-69
2022/11/22 04:36:51;;;;;;;5.18;2.67;;;;;;;8.89;100.00;98256.00;5014677;28;20470;-69
2022/11/22 04:39:16;;;;;;;6.43;3.15;;;;;;;8.85;100.00;98265.03;5013685;28;20517;-69
2022/11/22 04:41:42;;;;;;;14.50;2.33;;;;;;;8.76;100.00;98268.19;5010959;28;20026;-69
2022/11/22 04:46:53;;;;;;;6.68;3.78;;;;;;;8.60;100.00;98269.97;5011433;28;20033;-69
2022/11/22 04:49:18;;;;;;;8.82;4.00;;;;;;;8.57;100.00;98275.38;5011442;28;20033;-69
2022/11/22 04:54:27;;;;;;;;;;;;;;;8.48;100.00;98267.94;5014171;28;20171;-69
2022/11/22 04:56:53;;;;;;;6.47;3.50;;;;;;;8.42;100.00;98266.44;5015322;28;20003;-69
2022/11/22 04:59:18;;;;;;;8.90;2.42;;;;;;;8.36;100.00;98266.78;5015096;28;20184;-69
2022/11/22 05:01:43;;;;;;;7.68;3.42;;;;;;;8.41;100.00;98264.75;5013582;28;20041;-70
2022/11/22 05:04:09;;;;;;;13.40;3.30;;;;;;;8.36;100.00;98257.97;5027039;28;20022;-70
2022/11/22 05:06:35;;;;;;;10.07;3.35;;;;;;;8.43;100.00;98275.25;5021170;28;20044;-70
2022/11/22 05:09:01;;;;;;;7.72;2.97;;;;;;;8.40;100.00;98272.78;5015016;28;20033;-70
2022/11/22 05:11:26;;;;;;;7.38;2.53;;;;;;;8.42;100.00;98286.81;5015101;28;20026;-69
2022/11/22 05:13:52;;;;;;;6.78;2.30;;;;;;;8.45;100.00;98289.28;5014936;28;20032;-69
2022/11/22 05:16:17;;;;;;;10.45;2.75;;;;;;;8.48;100.00;98294.44;5013506;28;20452;-70
2022/11/22 05:18:43;;;;;;;8.98;2.80;;;;;;;8.46;100.00;98291.88;5014806;28;20048;-69
2022/11/22 05:21:11;;;;;;;4.97;2.40;;;;;;;8.46;100.00;98296.28;5032699;28;20037;-69
2022/11/22 05:23:55;;;;;;;7.13;2.38;;;;;;;8.50;100.00;98298.69;5034568;28;20447;-69
2022/11/22 05:26:27;;;;;;;7.65;3.05;;;;;;;8.56;100.00;98309.00;5034517;28;20057;-69
2022/11/22 05:28:53;;;;;;;6.38;2.78;;;;;;;8.56;100.00;98297.53;5032783;28;20078;-69
2022/11/22 05:31:26;;;;;;;12.32;2.78;;;;;;;8.56;100.00;98302.84;5033053;28;20021;-69
2022/11/22 05:33:54;;;;;;;8.10;2.35;;;;;;;8.65;100.00;98302.38;5034336;28;20417;-69
2022/11/22 05:36:20;;;;;;;7.18;2.28;;;;;;;8.60;100.00;98299.94;5022561;28;20037;-70
2022/11/22 05:38:47;;;;;;;5.05;2.55;;;;;;;8.62;100.00;98297.22;5031904;28;20473;-70
2022/11/22 05:41:13;;;;;;;6.72;2.42;;;;;;;8.61;100.00;98298.16;5033790;28;20025;-70
2022/11/22 05:43:40;;;;;;;5.30;2.63;;;;;;;8.65;100.00;98312.97;5034075;28;20029;-69
2022/11/22 05:46:10;;;;;;;4.43;1.92;;;;;;;8.67;100.00;98305.78;5034300;28;20399;-70
2022/11/22 05:48:37;;;;;;;7.53;2.67;;;;;;;8.66;100.00;98309.38;5034093;28;20040;-70
2022/11/22 05:51:04;;;;;;;4.28;2.15;;;;;;;8.69;100.00;98319.81;5034104;28;20026;-69
2022/11/22 05:53:30;;;;;;;2.97;1.90;;;;;;;8.70;100.00;98325.03;5033934;28;20049;-70
2022/11/22 05:55:55;;;;;;;4.18;1.80;;;;;;;8.69;100.00;98319.81;5033682;28;20801;-70
2022/11/22 05:58:20;;;;;;;7.13;2.58;;;;;;;8.61;100.00;98311.41;5032453;28;20116;-69
2022/11/22 06:00:46;;;;;;;5.05;2.10;;;;;;;8.74;100.00;98325.72;5032993;28;20037;-70
2022/11/22 06:03:11;;;;;;;4.93;1.73;;;;;;;8.74;100.00;98334.56;5033786;28;20598;-70
2022/11/22 06:05:37;;;;;;;4.68;1.85;;;;;;;8.74;100.00;98331.03;5027184;28;20034;-70
2022/11/22 06:08:02;;;;;;;5.85;2.65;;;;;;;8.67;100.00;98334.94;5016476;28;20034;-70
2022/11/22 06:10:28;;;;;;;8.30;2.70;;;;;;;8.69;100.00;98333.94;5013736;28;20448;-69
2022/11/22 06:12:54;;;;;;;11.02;3.03;;;;;;;8.69;100.00;98336.59;5012555;28;20388;-70
2022/11/22 06:15:19;;;;;;;14.07;4.05;;;;;;;8.64;100.00;98349.22;5012578;28;20026;-70
2022/11/22 06:17:45;;;;;;;15.45;4.25;;;;;;;8.60;100.00;98349.47;5016193;28;20032;-70
2022/11/22 06:20:11;;;;;;;6.32;2.55;;;;;;;8.49;100.00;98328.78;5013659;28;20033;-69
2022/11/22 06:22:36;;;;;;;9.45;2.70;;;;;;;8.56;100.00;98342.59;5013670;28;20083;-70
2022/11/22 06:25:02;;;;;;;6.07;2.80;;;;;;;8.50;100.00;98346.38;5013605;28;20064;-70
2022/11/22 06:27:27;;;;;;;5.88;3.13;;;;;;;8.39;100.00;98343.44;5015926;28;20037;-69
2022/11/22 06:29:52;;;;;;;4.00;2.47;;;;;;;8.49;100.00;98359.72;5012243;28;20112;-70
2022/11/22 06:32:18;;;;;;;10.57;3.03;;;;;;;8.43;100.00;98360.03;5016234;28;20377;-70
2022/11/22 06:34:43;;;;;;;5.68;2.40;;;;;;;8.38;100.00;98364.72;5013581;28;20038;-70
2022/11/22 06:37:09;;;;;;;9.25;2.65;;;;;;;8.34;100.00;98365.78;5013230;28;20544;-69
2022/11/22 06:39:35;;;;;;;9.27;2.85;;;;;;;8.23;100.00;98342.50;5013372;28;20100;-69
2022/11/22 06:42:00;;;;;;;5.20;2.38;;;;;;;8.34;100.00;98366.66;5013045;28;20065;-70
2022/11/22 06:44:25;;;;;;;8.80;4.13;;;;;;;8.34;100.00;98365.78;5013305;28;20030;-69
2022/11/22 06:46:51;;;;;;;11.57;3.90;;;;;;;8.35;100.00;98372.81;5013123;28;20037;-69
2022/11/22 06:49:16;;;;;;;7.50;3.58;;;;;;;8.36;100.00;98377.16;5013137;28;20402;-70
2022/11/22 06:51:41;;;;;;;14.82;4.13;;;;;;;8.43;100.00;98383.88;5013235;28;20025;-69
2022/11/22 06:54:10;;;;;;;11.52;3.90;;;;;;;8.47;100.00;98388.06;5012947;28;20087;-70
2022/11/22 06:56:38;;;;;;;7.28;2.90;;;;;;;8.48;100.00;98382.72;5013020;28;20030;-70
2022/11/22 06:59:04;;;;;;;9.30;3.42;;;;;;;8.51;100.00;98389.66;5012702;28;20068;-70
2022/11/22 07:01:31;;;;;;;7.43;3.10;;;;;;;8.55;100.00;98393.88;5012369;28;20029;-69
2022/11/22 07:03:58;;;;;;;8.88;3.25;;;;;;;8.49;100.00;98380.91;5019868;28;20107;-69
2022/11/22 07:06:29;;;;;;;8.10;3.20;;;;;;;8.58;100.00;98396.38;5031283;28;20033;-69
2022/11/22 07:08:55;;;;;;;6.53;3.10;;;;;;;8.59;100.00;98413.97;5031075;28;20453;-70
2022/11/22 07:11:23;;;;;;;10.23;3.58;;;;;;;8.50;100.00;98403.84;5031434;28;20029;-70
2022/11/22 07:13:49;;;;;;;9.25;3.30;;;;;;;8.57;100.00;98415.84;5027387;28;20358;-70
2022/11/22 07:16:17;;;;;;;4.88;3.08;;;;;;;8.59;100.00;98413.97;5012385;28;20025;-70
2022/11/22 07:18:43;;;;;;;8.65;2.83;;;;;;;8.60;100.00;98410.41;5026768;28;20053;-70
2022/11/22 07:21:11;;;;;;;8.80;2.88;;;;;;;8.61;100.00;98417.41;5032225;28;20101;-70
2022/11/22 07:23:38;;;;;;;8.60;3.00;;;;;;;8.54;100.00;98421.28;5031997;28;20078;-69
2022/11/22 07:26:04;;;;;;;4.25;2.30;;;;;;;8.58;100.00;98418.41;5032269;28;20033;-70
2022/11/22 07:28:29;;;;;;;11.98;3.70;;;;;;;8.53;100.00;98409.84;5031294;28;20025;-70
2022/11/22 07:31:04;;;;;;;12.82;3.83;;;;;;;8.57;100.00;98423.78;5032208;28;20021;-69
2022/11/22 07:33:30;;;;;;;12.98;4.45;;;;;;;8.60;100.00;98444.84;5027942;28;20477;-70
2022/11/22 07:35:55;;;;;;;9.82;3.15;;;;;;;8.53;100.00;98424.88;5035593;28;20034;-69
2022/11/22 07:38:21;;;;;;;9.32;2.97;;;;;;;8.65;100.00;98441.03;5031154;28;20029;-70
2022/11/22 07:40:46;;;;;;;5.93;2.25;;;;;;;8.67;100.00;98454.19;5031393;28;20068;-69
2022/11/22 07:43:12;;;;;;;4.50;1.83;;;;;;;8.57;100.00;98448.50;5016325;28;20045;-70
2022/11/22 07:45:37;;;;;;;3.33;2.00;;;;;;;8.71;100.00;98472.53;5016820;28;20065;-69
2022/11/22 07:48:03;;;;;;;6.88;2.72;;;;;;;8.74;100.00;98471.53;5021062;28;20037;-69
2022/11/22 07:50:28;;;;;;;3.45;2.00;;;;;;;8.77;100.00;98476.66;5029548;28;20087;-69
2022/11/22 07:52:55;;;;;;;5.63;2.60;;;;;;;8.78;100.00;98478.41;5025909;28;20026;-69
2022/11/22 07:55:21;;;;;;;4.40;2.05;;;;;;;8.86;100.00;98487.66;5015809;28;20167;-69
2022/11/22 07:57:46;;;;;;;9.23;2.70;;;;;;;8.87;100.00;98477.91;5029962;28;20124;-69
2022/11/22 08:00:12;;;;;;;7.72;2.78;;;;;;;8.95;100.00;98483.69;5046644;28;20496;-69
2022/11/22 08:02:38;;;;;;;6.88;2.85;;;;;;;8.97;100.00;98479.19;5030935;28;20453;-69
2022/11/22 08:05:03;;;;;;;6.72;2.65;;;;;;;9.04;100.00;98485.91;5029960;28;20101;-69
2022/11/22 08:07:29;;;;;;;7.45;2.80;;;;;;;8.94;100.00;98458.13;5012807;28;20025;-69
2022/11/22 08:09:54;;;;;;;15.77;3.92;;;;;;;9.09;100.00;98483.88;5029839;28;20094;-69
2022/11/22 08:12:20;;;;;;;14.55;4.50;;;;;;;9.14;100.00;98481.84;5013220;28;20557;-70
2022/11/22 08:14:45;;;;;;;9.70;3.35;;;;;;;9.15;100.00;98478.25;5021013;28;20031;-69
2022/11/22 08:17:10;;;;;;;7.32;3.47;;;;;;;9.20;100.00;98484.16;5020968;28;20115;-69
2022/11/22 08:19:36;;;;;;;6.07;2.70;;;;;;;9.22;100.00;98490.25;5026577;28;20035;-69
2022/11/22 08:22:01;;;;;;;9.73;3.30;;;;;;;9.26;100.00;98491.81;5016438;28;20508;-69
2022/11/22 08:24:27;;;;;;;4.07;2.28;;;;;;;9.31;100.00;98495.94;5029189;28;20034;-69
2022/11/22 08:26:52;;;;;;;4.50;2.22;;;;;;;9.39;100.00;98492.88;5015849;28;20030;-69
2022/11/22 08:29:18;;;;;;;9.70;2.53;;;;;;;9.33;100.00;98477.28;5019066;28;20045;-69
2022/11/22 08:31:43;;;;;;;5.85;2.83;;;;;;;9.41;100.00;98475.09;5019817;28;20516;-69
2022/11/22 08:34:08;;;;;;;5.85;2.25;;;;;;;9.47;100.00;98472.13;5029697;28;20025;-69
2022/11/22 08:36:34;;;;;;;6.75;2.45;;;;;;;9.59;100.00;98479.44;5023109;28;20040;-69
2022/11/22 08:39:00;;;;;;;7.35;2.30;;;;;;;9.69;100.00;98485.97;5037025;28;20033;-69
2022/11/22 08:41:25;;;;;;;7.15;2.80;;;;;;;9.77;100.00;98480.25;5029041;28;20502;-69
2022/11/22 08:43:52;;;;;;;9.88;3.78;;;;;;;9.80;100.00;98472.97;5018620;28;20033;-69
2022/11/22 08:46:18;;;;;;;8.55;3.40;;;;;;;9.97;100.00;98475.56;5019800;28;20064;-70
2022/11/22 08:48:44;;;;;;;14.90;4.22;;;;;;;10.02;100.00;98462.91;5021425;28;20870;-70
2022/11/22 08:51:12;;;;;;;11.40;3.45;;;;;;;10.14;100.00;98477.34;5025908;28;20026;-69
2022/11/22 08:53:40;;;;;;;9.40;2.63;;;;;;;10.23;100.00;98476.84;5023908;28;20029;-69
2022/11/22 08:56:08;;;;;;;5.80;2.22;;;;;;;10.28;100.00;98480.09;5019157;28;20530;-69
2022/11/22 08:58:34;;;;;;;9.93;2.40;;;;;;;10.43;100.00;98488.06;5021904;28;20164;-70
2022/11/22 09:01:16;;;;;;;6.53;2.38;;;;;;;10.49;100.00;98485.03;5020350;28;20822;-70
2022/11/22 09:03:43;;;;;;;4.63;1.90;;;;;;;10.52;98.69;98476.91;5017567;28;20060;-70
2022/11/22 09:06:19;;;;;;;9.55;2.88;;;;;;;10.73;97.22;98487.25;5020565;28;20037;-70
2022/11/22 09:08:45;;;;;;;5.88;1.80;;;;;;;10.98;95.88;98467.13;5018789;28;20362;-70
2022/11/22 09:11:13;;;;;;;6.53;1.75;;;;;;;11.46;93.30;98469.53;5017168;28;20076;-70
2022/11/22 09:13:39;;;;;;;5.20;1.70;;;;;;;11.67;89.98;98478.03;5021621;28;20034;-70
2022/11/22 09:16:08;;;;;;;6.13;1.73;;;;;;;12.11;87.55;98481.44;5019693;28;20041;-70
2022/11/22 09:18:33;;;;;;;5.90;2.50;;;;;;;12.38;84.39;98474.38;5018207;28;20112;-69
2022/11/22 09:21:01;;;;;;;5.47;2.08;;;;;;;13.06;82.54;98465.38;5018967;28;20109;-70
2022/11/22 09:23:27;;;;;;;8.43;1.92;;;;;;;13.70;80.38;98466.31;5018155;28;20044;-70
2022/11/22 09:26:02;;;;;;;7.10;1.83;;;;;;;13.89;75.55;98469.41;5033911;28;20754;-70
2022/11/22 09:28:28;;;;;;;6.60;1.60;;;;;;;13.82;75.02;98465.47;5020125;28;20029;-70
2022/11/22 09:31:01;;;;;;;4.20;1.80;;;;;;;13.83;72.63;98485.88;5018105;28;20092;-70
2022/11/22 09:33:28;;;;;;;6.03;2.20;;;;;;;13.93;71.60;98479.81;5018012;28;20033;-70
2022/11/22 09:36:10;;;;;;;4.65;1.50;;;;;;;14.46;71.27;98476.00;5020693;28;20052;-69
2022/11/22 09:38:36;;;;;;;7.05;2.05;;;;;;;14.51;69.50;98476.53;5019117;28;20029;-69
2022/11/22 09:41:29;;;;;;;49.00;22.95;;;;;;;14.02;67.93;98468.44;5018182;28;20032;-71
2022/11/22 09:44:22;;;;;;;18.42;15.60;;;;;;;13.46;71.12;98462.69;5020301;28;20044;-67
2022/11/22 09:47:06;;;;;;;6.80;4.20;;;;;;;13.05;73.67;98463.69;5018496;28;20033;-70
2022/11/22 09:49:56;;;;;;;4.82;2.22;;;;;;;12.54;75.87;98460.88;5021125;28;20034;-71
2022/11/22 09:52:26;;;;;;;8.13;1.83;;;;;;;12.43;76.73;98464.28;5018010;28;20030;-71
2022/11/22 09:55:14;;;;;;;3.85;1.60;;;;;;;12.20;77.65;98451.56;5034684;28;20036;-70
2022/11/22 09:57:50;;;;;;;6.88;1.70;;;;;;;11.94;78.94;98457.69;5017636;28;20353;-70
2022/11/22 10:00:22;;;;;;;4.22;2.00;;;;;;;11.85;79.34;98456.47;5016931;28;20573;-71
2022/11/22 10:02:58;;;;;;;6.13;1.90;;;;;;;11.73;80.51;98459.00;5020172;28;20041;-71
2022/11/22 10:05:31;;;;;;;5.65;1.75;;;;;;;11.46;80.55;98463.34;5030443;28;20033;-70
2022/11/22 10:08:28;;;;;;;13.50;4.53;;;;;;;11.34;82.40;98454.28;5022182;28;20533;-71
2022/11/22 10:10:57;;;;;;;5.35;1.92;;;;;;;11.23;82.33;98439.91;5010686;28;20038;-71
2022/11/22 10:13:38;;;;;;;5.57;2.15;;;;;;;11.17;83.45;98438.47;5020357;28;20041;-71
2022/11/22 10:16:14;;;;;;;10.90;2.10;;;;;;;11.21;82.81;98437.34;5034137;28;20129;-71
2022/11/22 10:18:58;;;;;;;8.98;2.80;;;;;;;11.42;83.52;98452.03;5018651;28;20028;-71
2022/11/22 10:21:25;;;;;;;6.13;1.63;;;;;;;11.40;81.44;98447.75;5017878;28;20494;-71
2022/11/22 10:23:50;;;;;;;5.47;1.45;;;;;;;11.45;82.58;98458.97;5015908;28;20477;-71
2022/11/22 10:26:35;;;;;;;4.80;1.75;;;;;;;11.58;82.43;98457.28;5017106;28;20043;-71
2022/11/22 10:29:27;;;;;;;5.25;2.15;;;;;;;11.68;82.25;98453.09;5018805;28;20107;-71
2022/11/22 10:32:20;;;;;;;5.07;1.85;;;;;;;11.54;79.41;98445.09;5023152;28;20072;-72
2022/11/22 10:34:48;;;;;;;6.55;2.05;;;;;;;11.52;80.52;98453.19;5019788;28;20800;-71
2022/11/22 10:37:29;;;;;;;3.20;1.67;;;;;;;11.39;79.92;98462.00;5016763;28;20029;-73
2022/11/22 10:40:11;;;;;;;8.75;2.10;;;;;;;11.35;80.98;98453.34;5017079;28;20029;-70
2022/11/22 10:42:45;;;;;;;3.33;1.52;;;;;;;11.34;80.29;98445.44;5019189;28;20847;-71
2022/11/22 10:45:14;;;;;;;5.00;1.58;;;;;;;11.35;79.91;98460.47;5016396;28;20025;-71
2022/11/22 10:48:01;;;;;;;5.18;2.00;;;;;;;11.39;79.77;98456.66;5021659;28;20032;-71
2022/11/22 10:50:48;;;;;;;7.38;1.67;;;;;;;11.41;79.22;98450.31;5024666;28;20117;-70
2022/11/22 10:53:36;;;;;;;3.83;1.63;;;;;;;11.39;79.37;98414.06;5017192;28;20144;-70
2022/11/22 10:56:10;;;;;;;10.48;2.28;;;;;;;11.71;78.97;98447.63;5018733;28;20021;-71
2022/11/22 10:58:56;;;;;;;6.97;1.60;;;;;;;11.72;76.72;98447.53;5014781;28;20029;-71
2022/11/22 11:01:39;;;;;;;4.13;1.60;;;;;;;11.69;76.73;98437.06;5018960;28;20030;-71
2022/11/22 11:04:06;;;;;;;6.60;1.33;;;;;;;11.57;75.59;98442.22;5016054;28;20060;-70
2022/11/22 11:06:41;;;;;;;5.30;3.08;;;;;;;11.50;74.68;98439.09;5016496;28;20304;-71
2022/11/22 11:09:19;;;;;;;4.38;1.60;;;;;;;11.64;74.71;98446.28;5030155;28;20106;-71
2022/11/22 11:11:47;;;;;;;5.60;2.00;;;;;;;11.67;75.09;98440.75;5015191;28;20365;-71
2022/11/22 11:14:48;;;;;;;4.32;1.50;;;;;;;11.56;73.64;98443.19;5022467;28;20518;-70
2022/11/22 11:17:24;;;;;;;4.32;1.70;;;;;;;11.63;75.89;98449.88;5013984;28;20052;-70
2022/11/22 11:19:53;;;;;;;4.88;1.52;;;;;;;11.64;75.61;98435.63;5017853;28;20436;-71
2022/11/22 11:22:23;;;;;;;6.97;1.50;;;;;;;11.67;74.38;98440.75;5033916;28;20037;-70
2022/11/22 11:24:48;;;;;;;5.32;2.20;;;;;;;11.50;72.46;98432.91;5017245;28;20040;-71
2022/11/22 11:27:16;;;;;;;6.32;1.63;;;;;;;11.43;72.59;98436.91;5020598;28;20029;-70
2022/11/22 11:29:58;;;;;;;5.05;1.77;;;;;;;11.39;72.81;98430.91;5026428;28;20384;-71
2022/11/22 11:32:23;;;;;;;5.05;1.33;;;;;;;11.34;73.16;98445.44;5018251;28;20026;-70
2022/11/22 11:34:56;;;;;;;3.35;1.27;;;;;;;11.25;74.51;98441.53;5017432;28;20033;-70
2022/11/22 11:37:32;;;;;;;6.18;2.08;;;;;;;11.19;74.01;98433.06;5023612;28;20433;-70
2022/11/22 11:39:57;;;;;;;13.07;2.03;;;;;;;11.10;74.31;98430.97;5015180;28;20113;-70
2022/11/22 11:42:31;;;;;;;2.25;1.13;;;;;;;11.09;74.35;98429.22;5016653;28;20100;-71
2022/11/22 11:45:27;;;;;;;6.65;1.40;;;;;;;11.11;75.90;98435.31;5017725;28;20033;-70
2022/11/22 11:47:52;;;;;;;3.15;1.23;;;;;;;11.05;74.64;98425.06;5017295;28;20033;-70
2022/11/22 11:50:21;;;;;;;4.07;1.35;;;;;;;11.00;76.08;98403.19;5014164;28;20029;-70
2022/11/22 11:53:05;;;;;;;2.28;1.00;;;;;;;11.09;76.83;98415.94;5019048;28;20764;-70